Time;durP1;ratioP1;P1;durP2;ratioP2;P2;SDS_P1;SDS_P2;PMS_P1;PMS_P2;Temp;Humidity;BMP_temperature;BMP_pressure;BME280_temperature;BME280_humidity;BME280_pressure;Samples;Min_cycle;Max_cycle;Signal;HPM_P1;HPM_P2
2023/01/24 00:13:15;;;;;;;12.38;5.40;;;2.90;99.90;;;;;;6315722;22;20102;-95
2023/01/24 00:15:41;;;;;;;;;;;2.90;99.90;;;;;;6262485;22;20039;-95
2023/01/24 00:18:07;;;;;;;12.30;5.88;;;2.90;99.90;;;;;;6266927;22;19925;-92
2023/01/24 00:20:33;;;;;;;13.98;7.35;;;2.80;99.90;;;;;;6268862;22;20019;-96
2023/01/24 00:23:24;;;;;;;15.13;6.63;;;2.80;99.90;;;;;;6265710;22;20016;-92
2023/01/24 00:25:49;;;;;;;13.18;6.20;;;2.80;99.90;;;;;;6269258;22;20020;-93
2023/01/24 00:28:16;;;;;;;14.98;6.65;;;2.90;99.90;;;;;;6268410;22;20011;-94
2023/01/24 00:30:42;;;;;;;15.52;6.63;;;2.80;99.90;;;;;;6270621;22;20121;-94
2023/01/24 00:33:11;;;;;;;13.85;6.60;;;2.80;99.90;;;;;;6293132;22;20022;-96
2023/01/24 00:35:37;;;;;;;14.18;6.40;;;2.90;99.90;;;;;;6268353;22;20043;-95
2023/01/24 00:38:58;;;;;;;15.45;6.03;;;2.80;99.90;;;;;;6272923;22;20007;-94
2023/01/24 00:41:33;;;;;;;13.23;5.82;;;2.80;99.90;;;;;;6269418;22;20015;-95
2023/01/24 02:40:30;;;;;;;16.35;6.65;;;2.80;99.90;;;;;;6322136;22;20019;-96
2023/01/24 02:43:26;;;;;;;15.27;7.05;;;2.80;99.90;;;;;;6273798;22;20023;-96
2023/01/24 02:45:51;;;;;;;18.73;6.57;;;2.90;99.90;;;;;;6271304;22;20072;-96
2023/01/24 02:48:17;;;;;;;16.38;7.13;;;2.90;99.90;;;;;;6266120;22;20093;-91
2023/01/24 02:53:30;;;;;;;16.80;7.30;;;2.90;99.90;;;;;;6297364;22;20019;-94
2023/01/24 02:58:45;;;;;;;15.98;7.13;;;2.90;99.90;;;;;;6293376;22;20144;-93
2023/01/24 03:01:14;;;;;;;15.82;6.82;;;2.90;99.90;;;;;;6269957;22;20027;-95
2023/01/24 03:03:45;;;;;;;16.38;7.30;;;2.90;99.90;;;;;;6295018;22;20091;-92
2023/01/24 03:06:13;;;;;;;15.15;6.60;;;2.90;99.90;;;;;;6295760;22;20021;-95
2023/01/24 03:08:39;;;;;;;;;;;2.90;99.90;;;;;;6271146;22;20022;-93
2023/01/24 03:11:06;;;;;;;16.98;6.47;;;2.90;99.90;;;;;;6269012;22;19915;-93
2023/01/24 03:35:32;;;;;;;19.30;8.00;;;2.90;99.90;;;;;;6293198;22;20031;-96
2023/01/24 03:40:45;;;;;;;17.20;7.25;;;2.80;99.90;;;;;;6322591;22;20101;-93
2023/01/24 03:43:11;;;;;;;15.93;7.13;;;2.80;99.90;;;;;;6295410;22;20352;-94
2023/01/24 03:45:39;;;;;;;17.73;7.07;;;2.80;99.90;;;;;;6296505;22;20020;-94
2023/01/24 03:48:14;;;;;;;17.70;7.38;;;2.80;99.90;;;;;;6300000;22;20015;-96
2023/01/24 03:53:29;;;;;;;18.80;7.53;;;2.80;99.90;;;;;;6323692;22;20030;-93
2023/01/24 03:56:14;;;;;;;15.35;6.90;;;2.90;99.90;;;;;;6297323;22;20092;-95
2023/01/24 03:58:53;;;;;;;16.80;7.15;;;2.90;99.90;;;;;;6322512;22;20015;-92
2023/01/24 04:01:20;;;;;;;16.10;7.88;;;2.80;99.90;;;;;;6323456;22;20460;-96
2023/01/24 04:03:47;;;;;;;;;;;2.90;99.90;;;;;;6299256;22;20049;-94
2023/01/24 04:06:21;;;;;;;18.33;7.30;;;2.90;99.90;;;;;;6325035;22;19914;-94
2023/01/24 04:08:55;;;;;;;16.42;7.03;;;2.80;99.90;;;;;;6324594;22;20022;-96
2023/01/24 04:11:21;;;;;;;16.20;7.03;;;2.90;99.90;;;;;;6299747;22;20019;-91
2023/01/24 04:13:50;;;;;;;15.57;6.78;;;2.90;99.90;;;;;;6308430;22;20004;-90
2023/01/24 04:18:51;;;;;;;14.65;6.07;;;2.90;99.90;;;;;;6302168;22;20079;-90
2023/01/24 04:21:17;;;;;;;11.93;5.68;;;2.90;99.90;;;;;;6273787;22;20349;-92
2023/01/24 04:23:44;;;;;;;13.67;5.97;;;2.90;99.90;;;;;;6246569;22;20003;-90
2023/01/24 04:26:47;;;;;;;14.68;6.93;;;2.80;99.90;;;;;;6296156;22;20258;-91
2023/01/24 04:48:00;;;;;;;12.43;5.47;;;2.80;99.90;;;;;;6294578;22;20027;-89
2023/01/24 04:50:28;;;;;;;12.73;5.30;;;2.90;99.90;;;;;;6272934;22;20020;-92
2023/01/24 04:52:55;;;;;;;13.88;5.53;;;2.90;99.90;;;;;;6221979;22;20043;-91
2023/01/24 04:55:52;;;;;;;12.40;4.68;;;2.90;99.90;;;;;;6275968;22;20014;-91
2023/01/24 04:58:19;;;;;;;12.63;5.78;;;2.90;99.90;;;;;;6246375;22;20008;-90
2023/01/24 05:11:07;;;;;;;10.40;4.95;;;2.90;99.90;;;;;;6327605;22;20023;-93
2023/01/24 05:13:35;;;;;;;12.77;5.78;;;2.90;99.90;;;;;;6221039;23;20028;-90
2023/01/24 05:16:23;;;;;;;15.10;6.03;;;2.90;99.90;;;;;;6246436;22;20024;-90
2023/01/24 05:21:25;;;;;;;11.32;5.55;;;2.90;99.90;;;;;;6324071;22;20011;-90
2023/01/24 05:23:59;;;;;;;11.15;5.63;;;2.90;99.90;;;;;;6301844;22;20019;-90
2023/01/24 05:26:32;;;;;;;12.10;5.00;;;2.90;99.90;;;;;;6278297;22;20026;-90
2023/01/24 05:34:08;;;;;;;11.57;5.38;;;2.90;99.90;;;;;;6335537;22;20033;-90
2023/01/24 05:45:15;;;;;;;14.35;6.40;;;2.90;99.90;;;;;;6326811;22;20023;-89
2023/01/24 05:47:41;;;;;;;13.43;5.63;;;2.90;99.90;;;;;;6277333;22;20022;-88
2023/01/24 05:50:15;;;;;;;13.88;6.43;;;2.90;99.90;;;;;;6251771;22;20509;-96
2023/01/24 05:52:41;;;;;;;14.10;6.35;;;2.90;99.90;;;;;;6270976;22;20012;-93
2023/01/24 05:55:12;;;;;;;15.90;6.57;;;2.90;99.90;;;;;;6276032;22;20003;-91
2023/01/24 05:58:05;;;;;;;14.18;6.65;;;2.90;99.90;;;;;;6302173;22;20012;-91
2023/01/24 06:00:37;;;;;;;;;;;2.80;99.90;;;;;;6254358;22;19999;-94
2023/01/24 06:21:42;;;;;;;14.93;6.65;;;2.80;99.90;;;;;;6314669;22;20027;-94
2023/01/24 06:24:14;;;;;;;16.40;7.43;;;2.80;99.90;;;;;;6263308;22;20019;-91
2023/01/24 06:26:41;;;;;;;14.90;6.68;;;2.80;99.90;;;;;;6264838;22;20023;-94
2023/01/24 06:29:09;;;;;;;14.95;7.30;;;2.80;99.90;;;;;;6264470;22;20015;-94
2023/01/24 06:31:59;;;;;;;14.40;6.90;;;2.70;99.90;;;;;;6263326;22;20065;-96
2023/01/24 06:34:37;;;;;;;14.60;6.97;;;2.70;99.90;;;;;;6257864;22;20073;-95
2023/01/24 06:37:37;;;;;;;14.88;6.55;;;2.70;99.90;;;;;;6262540;22;20015;-96
2023/01/24 06:40:25;;;;;;;12.27;6.15;;;2.70;99.90;;;;;;6269859;22;20456;-95
